sensor_id;sensor_type;location;lat;lon;timestamp;P1;durP1;ratioP1;P2;durP2;ratioP2
46845;SDS011;33947;46.804;134.252;2023-04-19T00:01:24;30.55;;;17.70;;
46845;SDS011;33947;46.804;134.252;2023-04-19T00:04:29;28.45;;;18.58;;
46845;SDS011;33947;46.804;134.252;2023-04-19T00:07:34;24.92;;;15.50;;
46845;SDS011;33947;46.804;134.252;2023-04-19T00:10:38;24.27;;;16.02;;
46845;SDS011;33947;46.804;134.252;2023-04-19T00:13:43;30.33;;;19.60;;
46845;SDS011;33947;46.804;134.252;2023-04-19T00:16:48;37.20;;;22.92;;
46845;SDS011;33947;46.804;134.252;2023-04-19T00:19:52;23.98;;;16.15;;
46845;SDS011;33947;46.804;134.252;2023-04-19T00:22:57;23.80;;;14.70;;
46845;SDS011;33947;46.804;134.252;2023-04-19T00:26:02;29.13;;;17.02;;
46845;SDS011;33947;46.804;134.252;2023-04-19T00:29:06;23.38;;;15.48;;
46845;SDS011;33947;46.804;134.252;2023-04-19T00:32:12;25.02;;;14.90;;
46845;SDS011;33947;46.804;134.252;2023-04-19T00:35:18;28.48;;;15.65;;
46845;SDS011;33947;46.804;134.252;2023-04-19T00:38:22;25.27;;;15.82;;
46845;SDS011;33947;46.804;134.252;2023-04-19T00:41:26;21.95;;;13.45;;
46845;SDS011;33947;46.804;134.252;2023-04-19T00:44:31;18.40;;;13.27;;
46845;SDS011;33947;46.804;134.252;2023-04-19T00:47:36;21.40;;;13.23;;
46845;SDS011;33947;46.804;134.252;2023-04-19T00:50:42;18.85;;;13.73;;
46845;SDS011;33947;46.804;134.252;2023-04-19T00:53:47;18.50;;;12.82;;
46845;SDS011;33947;46.804;134.252;2023-04-19T00:56:52;17.45;;;12.38;;
46845;SDS011;33947;46.804;134.252;2023-04-19T00:59:57;17.67;;;12.18;;
46845;SDS011;33947;46.804;134.252;2023-04-19T01:03:05;21.83;;;13.23;;
46845;SDS011;33947;46.804;134.252;2023-04-19T01:06:11;45.28;;;29.73;;
46845;SDS011;33947;46.804;134.252;2023-04-19T01:09:16;27.80;;;16.77;;
46845;SDS011;33947;46.804;134.252;2023-04-19T01:12:19;37.38;;;20.40;;
46845;SDS011;33947;46.804;134.252;2023-04-19T01:15:25;26.65;;;16.33;;
46845;SDS011;33947;46.804;134.252;2023-04-19T01:18:29;43.05;;;22.02;;
46845;SDS011;33947;46.804;134.252;2023-04-19T01:21:39;18.10;;;11.98;;
46845;SDS011;33947;46.804;134.252;2023-04-19T01:24:45;24.08;;;14.43;;
46845;SDS011;33947;46.804;134.252;2023-04-19T01:27:48;22.92;;;15.05;;
46845;SDS011;33947;46.804;134.252;2023-04-19T01:30:53;16.27;;;10.95;;
46845;SDS011;33947;46.804;134.252;2023-04-19T01:34:00;18.85;;;12.55;;
46845;SDS011;33947;46.804;134.252;2023-04-19T01:37:05;19.65;;;11.90;;
46845;SDS011;33947;46.804;134.252;2023-04-19T01:40:09;16.90;;;11.30;;
46845;SDS011;33947;46.804;134.252;2023-04-19T01:43:15;27.20;;;15.20;;
46845;SDS011;33947;46.804;134.252;2023-04-19T01:49:25;19.05;;;11.23;;
46845;SDS011;33947;46.804;134.252;2023-04-19T01:52:30;17.80;;;12.05;;
46845;SDS011;33947;46.804;134.252;2023-04-19T01:55:35;19.25;;;12.43;;
46845;SDS011;33947;46.804;134.252;2023-04-19T01:58:39;28.20;;;15.35;;
46845;SDS011;33947;46.804;134.252;2023-04-19T02:01:44;30.33;;;17.55;;
46845;SDS011;33947;46.804;134.252;2023-04-19T02:04:48;20.30;;;12.48;;
46845;SDS011;33947;46.804;134.252;2023-04-19T02:07:52;26.23;;;13.75;;
46845;SDS011;33947;46.804;134.252;2023-04-19T02:10:57;24.38;;;13.75;;
46845;SDS011;33947;46.804;134.252;2023-04-19T02:14:01;39.55;;;18.58;;
46845;SDS011;33947;46.804;134.252;2023-04-19T02:17:06;31.60;;;18.50;;
46845;SDS011;33947;46.804;134.252;2023-04-19T02:20:10;27.08;;;15.82;;
46845;SDS011;33947;46.804;134.252;2023-04-19T02:23:15;16.70;;;12.43;;
46845;SDS011;33947;46.804;134.252;2023-04-19T02:26:19;30.63;;;17.23;;
46845;SDS011;33947;46.804;134.252;2023-04-19T02:29:24;31.92;;;17.20;;
46845;SDS011;33947;46.804;134.252;2023-04-19T02:32:28;27.73;;;12.68;;
46845;SDS011;33947;46.804;134.252;2023-04-19T02:35:32;25.35;;;12.60;;
46845;SDS011;33947;46.804;134.252;2023-04-19T02:38:36;16.27;;;11.00;;
46845;SDS011;33947;46.804;134.252;2023-04-19T02:41:41;17.15;;;11.30;;
46845;SDS011;33947;46.804;134.252;2023-04-19T02:44:45;20.98;;;13.25;;
46845;SDS011;33947;46.804;134.252;2023-04-19T02:47:49;34.78;;;18.25;;
46845;SDS011;33947;46.804;134.252;2023-04-19T02:50:53;24.80;;;14.35;;
46845;SDS011;33947;46.804;134.252;2023-04-19T02:53:57;30.90;;;17.23;;
46845;SDS011;33947;46.804;134.252;2023-04-19T02:57:01;21.08;;;13.68;;
46845;SDS011;33947;46.804;134.252;2023-04-19T03:00:06;17.02;;;11.13;;
46845;SDS011;33947;46.804;134.252;2023-04-19T03:03:13;19.20;;;12.80;;
46845;SDS011;33947;46.804;134.252;2023-04-19T03:06:17;27.55;;;12.18;;
46845;SDS011;33947;46.804;134.252;2023-04-19T03:09:21;23.55;;;11.95;;
46845;SDS011;33947;46.804;134.252;2023-04-19T03:12:26;19.02;;;12.23;;
46845;SDS011;33947;46.804;134.252;2023-04-19T03:15:31;19.00;;;11.35;;
46845;SDS011;33947;46.804;134.252;2023-04-19T03:18:35;21.15;;;12.48;;
46845;SDS011;33947;46.804;134.252;2023-04-19T03:21:40;19.93;;;13.27;;
46845;SDS011;33947;46.804;134.252;2023-04-19T03:24:45;16.35;;;11.48;;
46845;SDS011;33947;46.804;134.252;2023-04-19T03:27:55;22.42;;;11.77;;
46845;SDS011;33947;46.804;134.252;2023-04-19T03:31:30;20.38;;;13.13;;
46845;SDS011;33947;46.804;134.252;2023-04-19T03:34:35;25.70;;;11.07;;
46845;SDS011;33947;46.804;134.252;2023-04-19T03:37:39;20.35;;;11.18;;
46845;SDS011;33947;46.804;134.252;2023-04-19T03:40:44;22.80;;;12.13;;
46845;SDS011;33947;46.804;134.252;2023-04-19T03:43:50;22.42;;;12.13;;
46845;SDS011;33947;46.804;134.252;2023-04-19T03:46:55;16.85;;;9.90;;
46845;SDS011;33947;46.804;134.252;2023-04-19T03:50:04;14.05;;;10.85;;
46845;SDS011;33947;46.804;134.252;2023-04-19T03:53:10;19.70;;;12.65;;
46845;SDS011;33947;46.804;134.252;2023-04-19T03:56:15;42.73;;;30.20;;
46845;SDS011;33947;46.804;134.252;2023-04-19T03:59:19;15.50;;;10.60;;
46845;SDS011;33947;46.804;134.252;2023-04-19T04:02:24;14.55;;;10.10;;
46845;SDS011;33947;46.804;134.252;2023-04-19T04:05:28;17.75;;;11.63;;
46845;SDS011;33947;46.804;134.252;2023-04-19T04:11:38;19.70;;;12.27;;
46845;SDS011;33947;46.804;134.252;2023-04-19T04:14:43;24.58;;;17.50;;
46845;SDS011;33947;46.804;134.252;2023-04-19T04:17:48;17.33;;;11.15;;
46845;SDS011;33947;46.804;134.252;2023-04-19T04:20:54;14.43;;;9.23;;
46845;SDS011;33947;46.804;134.252;2023-04-19T04:23:59;13.77;;;9.48;;
46845;SDS011;33947;46.804;134.252;2023-04-19T04:27:25;14.00;;;8.98;;
46845;SDS011;33947;46.804;134.252;2023-04-19T04:30:31;14.45;;;8.57;;
46845;SDS011;33947;46.804;134.252;2023-04-19T04:33:38;12.85;;;8.43;;
46845;SDS011;33947;46.804;134.252;2023-04-19T04:36:46;11.82;;;8.65;;
46845;SDS011;33947;46.804;134.252;2023-04-19T04:39:54;13.55;;;8.80;;
46845;SDS011;33947;46.804;134.252;2023-04-19T04:42:59;12.65;;;8.35;;
46845;SDS011;33947;46.804;134.252;2023-04-19T04:46:07;12.10;;;7.47;;
46845;SDS011;33947;46.804;134.252;2023-04-19T04:49:15;15.35;;;7.70;;
46845;SDS011;33947;46.804;134.252;2023-04-19T04:52:19;17.17;;;8.30;;
46845;SDS011;33947;46.804;134.252;2023-04-19T04:55:33;12.98;;;7.68;;
46845;SDS011;33947;46.804;134.252;2023-04-19T04:58:37;12.38;;;8.02;;
46845;SDS011;33947;46.804;134.252;2023-04-19T05:01:45;13.55;;;7.22;;
46845;SDS011;33947;46.804;134.252;2023-04-19T05:04:50;11.47;;;7.70;;
46845;SDS011;33947;46.804;134.252;2023-04-19T05:07:54;12.50;;;7.93;;
46845;SDS011;33947;46.804;134.252;2023-04-19T05:10:58;13.55;;;7.53;;
46845;SDS011;33947;46.804;134.252;2023-04-19T05:14:05;9.02;;;6.93;;
46845;SDS011;33947;46.804;134.252;2023-04-19T05:17:10;9.88;;;7.32;;
46845;SDS011;33947;46.804;134.252;2023-04-19T05:20:15;9.80;;;7.28;;
46845;SDS011;33947;46.804;134.252;2023-04-19T05:23:21;11.60;;;7.30;;
46845;SDS011;33947;46.804;134.252;2023-04-19T05:26:26;12.23;;;7.60;;
46845;SDS011;33947;46.804;134.252;2023-04-19T05:29:30;9.70;;;7.15;;
46845;SDS011;33947;46.804;134.252;2023-04-19T05:32:36;9.32;;;7.65;;
46845;SDS011;33947;46.804;134.252;2023-04-19T05:35:43;10.00;;;6.15;;
46845;SDS011;33947;46.804;134.252;2023-04-19T05:38:48;8.83;;;5.97;;
46845;SDS011;33947;46.804;134.252;2023-04-19T05:41:52;9.38;;;6.47;;
46845;SDS011;33947;46.804;134.252;2023-04-19T05:44:56;5.90;;;4.85;;
46845;SDS011;33947;46.804;134.252;2023-04-19T05:48:04;11.57;;;6.20;;
46845;SDS011;33947;46.804;134.252;2023-04-19T05:51:08;12.63;;;6.50;;
46845;SDS011;33947;46.804;134.252;2023-04-19T05:54:33;11.02;;;9.18;;
46845;SDS011;33947;46.804;134.252;2023-04-19T05:57:39;6.88;;;5.80;;
46845;SDS011;33947;46.804;134.252;2023-04-19T06:00:44;6.93;;;4.65;;
46845;SDS011;33947;46.804;134.252;2023-04-19T06:03:52;16.70;;;10.25;;
46845;SDS011;33947;46.804;134.252;2023-04-19T06:06:59;12.10;;;7.47;;
46845;SDS011;33947;46.804;134.252;2023-04-19T06:10:07;12.88;;;8.50;;
46845;SDS011;33947;46.804;134.252;2023-04-19T06:13:12;7.68;;;5.80;;
46845;SDS011;33947;46.804;134.252;2023-04-19T06:16:17;11.55;;;8.55;;
46845;SDS011;33947;46.804;134.252;2023-04-19T06:19:21;8.10;;;6.70;;
46845;SDS011;33947;46.804;134.252;2023-04-19T06:22:26;6.07;;;5.03;;
46845;SDS011;33947;46.804;134.252;2023-04-19T06:25:30;14.52;;;8.88;;
46845;SDS011;33947;46.804;134.252;2023-04-19T06:28:35;30.20;;;10.00;;
46845;SDS011;33947;46.804;134.252;2023-04-19T06:31:39;10.27;;;6.68;;
46845;SDS011;33947;46.804;134.252;2023-04-19T06:34:44;11.83;;;4.90;;
46845;SDS011;33947;46.804;134.252;2023-04-19T06:37:48;16.08;;;8.82;;
46845;SDS011;33947;46.804;134.252;2023-04-19T06:40:53;10.13;;;6.60;;
46845;SDS011;33947;46.804;134.252;2023-04-19T06:43:58;9.60;;;5.88;;
46845;SDS011;33947;46.804;134.252;2023-04-19T06:47:02;10.60;;;5.50;;
46845;SDS011;33947;46.804;134.252;2023-04-19T06:50:07;7.55;;;5.65;;
46845;SDS011;33947;46.804;134.252;2023-04-19T06:53:12;8.05;;;5.38;;
46845;SDS011;33947;46.804;134.252;2023-04-19T06:56:16;10.15;;;4.68;;
46845;SDS011;33947;46.804;134.252;2023-04-19T06:59:20;8.30;;;4.72;;
46845;SDS011;33947;46.804;134.252;2023-04-19T07:02:25;9.00;;;4.60;;
46845;SDS011;33947;46.804;134.252;2023-04-19T07:05:29;7.07;;;4.63;;
46845;SDS011;33947;46.804;134.252;2023-04-19T07:08:34;8.32;;;4.88;;
46845;SDS011;33947;46.804;134.252;2023-04-19T07:11:51;5.43;;;4.50;;
46845;SDS011;33947;46.804;134.252;2023-04-19T07:14:56;7.67;;;4.20;;
46845;SDS011;33947;46.804;134.252;2023-04-19T07:18:01;9.18;;;5.70;;
46845;SDS011;33947;46.804;134.252;2023-04-19T07:21:06;6.10;;;4.95;;
46845;SDS011;33947;46.804;134.252;2023-04-19T07:24:10;5.35;;;4.35;;
46845;SDS011;33947;46.804;134.252;2023-04-19T07:27:15;6.18;;;4.43;;
46845;SDS011;33947;46.804;134.252;2023-04-19T07:30:21;4.68;;;3.60;;
46845;SDS011;33947;46.804;134.252;2023-04-19T07:33:25;6.20;;;5.03;;
46845;SDS011;33947;46.804;134.252;2023-04-19T07:36:30;6.47;;;3.83;;
46845;SDS011;33947;46.804;134.252;2023-04-19T07:39:37;5.43;;;3.92;;
46845;SDS011;33947;46.804;134.252;2023-04-19T07:42:42;5.13;;;3.55;;
46845;SDS011;33947;46.804;134.252;2023-04-19T07:45:47;4.53;;;3.80;;
46845;SDS011;33947;46.804;134.252;2023-04-19T07:48:51;5.85;;;3.58;;
46845;SDS011;33947;46.804;134.252;2023-04-19T07:51:56;4.47;;;3.60;;
46845;SDS011;33947;46.804;134.252;2023-04-19T07:55:00;5.53;;;3.50;;
46845;SDS011;33947;46.804;134.252;2023-04-19T07:58:05;4.07;;;3.42;;
46845;SDS011;33947;46.804;134.252;2023-04-19T08:01:09;12.23;;;4.32;;
46845;SDS011;33947;46.804;134.252;2023-04-19T08:04:14;7.00;;;4.87;;
46845;SDS011;33947;46.804;134.252;2023-04-19T08:07:23;9.38;;;4.15;;
46845;SDS011;33947;46.804;134.252;2023-04-19T08:10:29;4.95;;;3.58;;
46845;SDS011;33947;46.804;134.252;2023-04-19T08:13:33;18.17;;;8.75;;
46845;SDS011;33947;46.804;134.252;2023-04-19T08:16:38;14.77;;;6.20;;
46845;SDS011;33947;46.804;134.252;2023-04-19T08:19:45;14.68;;;6.30;;
46845;SDS011;33947;46.804;134.252;2023-04-19T08:22:52;5.53;;;4.25;;
46845;SDS011;33947;46.804;134.252;2023-04-19T08:25:56;9.50;;;4.10;;
46845;SDS011;33947;46.804;134.252;2023-04-19T08:29:01;6.37;;;4.30;;
46845;SDS011;33947;46.804;134.252;2023-04-19T08:32:05;17.70;;;6.30;;
46845;SDS011;33947;46.804;134.252;2023-04-19T08:35:10;10.93;;;6.83;;
46845;SDS011;33947;46.804;134.252;2023-04-19T08:38:14;11.20;;;6.03;;
46845;SDS011;33947;46.804;134.252;2023-04-19T08:41:18;10.25;;;4.20;;
46845;SDS011;33947;46.804;134.252;2023-04-19T08:44:25;5.63;;;4.32;;
46845;SDS011;33947;46.804;134.252;2023-04-19T08:47:39;10.55;;;3.92;;
46845;SDS011;33947;46.804;134.252;2023-04-19T08:51:00;5.55;;;4.25;;
46845;SDS011;33947;46.804;134.252;2023-04-19T08:54:07;4.60;;;3.50;;
46845;SDS011;33947;46.804;134.252;2023-04-19T08:57:13;4.95;;;3.78;;
46845;SDS011;33947;46.804;134.252;2023-04-19T09:00:18;5.60;;;3.45;;
46845;SDS011;33947;46.804;134.252;2023-04-19T09:03:23;7.47;;;4.78;;
46845;SDS011;33947;46.804;134.252;2023-04-19T09:06:28;6.32;;;4.72;;
46845;SDS011;33947;46.804;134.252;2023-04-19T09:09:39;6.72;;;4.60;;
46845;SDS011;33947;46.804;134.252;2023-04-19T09:13:05;6.15;;;4.57;;
46845;SDS011;33947;46.804;134.252;2023-04-19T09:16:22;54.88;;;29.40;;
46845;SDS011;33947;46.804;134.252;2023-04-19T09:19:31;34.50;;;21.17;;
46845;SDS011;33947;46.804;134.252;2023-04-19T09:23:04;56.72;;;34.03;;
46845;SDS011;33947;46.804;134.252;2023-04-19T09:26:14;32.88;;;20.83;;
46845;SDS011;33947;46.804;134.252;2023-04-19T09:29:25;25.23;;;16.55;;
46845;SDS011;33947;46.804;134.252;2023-04-19T09:32:43;25.83;;;16.92;;
46845;SDS011;33947;46.804;134.252;2023-04-19T09:35:49;41.97;;;26.95;;
46845;SDS011;33947;46.804;134.252;2023-04-19T09:38:53;24.23;;;16.63;;
46845;SDS011;33947;46.804;134.252;2023-04-19T09:41:58;12.30;;;7.10;;
46845;SDS011;33947;46.804;134.252;2023-04-19T09:45:02;33.15;;;15.98;;
46845;SDS011;33947;46.804;134.252;2023-04-19T09:48:11;56.28;;;24.67;;
46845;SDS011;33947;46.804;134.252;2023-04-19T09:54:21;38.88;;;21.73;;
46845;SDS011;33947;46.804;134.252;2023-04-19T09:57:26;50.40;;;24.50;;
46845;SDS011;33947;46.804;134.252;2023-04-19T10:00:32;26.67;;;13.60;;
46845;SDS011;33947;46.804;134.252;2023-04-19T10:03:49;38.63;;;20.27;;
46845;SDS011;33947;46.804;134.252;2023-04-19T10:10:03;56.30;;;24.27;;
46845;SDS011;33947;46.804;134.252;2023-04-19T10:13:22;60.58;;;29.73;;
46845;SDS011;33947;46.804;134.252;2023-04-19T10:16:29;76.43;;;36.08;;
46845;SDS011;33947;46.804;134.252;2023-04-19T10:19:34;65.75;;;33.58;;
46845;SDS011;33947;46.804;134.252;2023-04-19T10:22:40;40.35;;;22.40;;
46845;SDS011;33947;46.804;134.252;2023-04-19T10:25:45;34.93;;;20.17;;
46845;SDS011;33947;46.804;134.252;2023-04-19T10:32:05;23.45;;;12.63;;
46845;SDS011;33947;46.804;134.252;2023-04-19T10:35:20;29.80;;;12.38;;
46845;SDS011;33947;46.804;134.252;2023-04-19T10:38:40;35.80;;;13.73;;
46845;SDS011;33947;46.804;134.252;2023-04-19T10:41:55;23.98;;;10.88;;
46845;SDS011;33947;46.804;134.252;2023-04-19T10:48:38;23.67;;;16.73;;
46845;SDS011;33947;46.804;134.252;2023-04-19T10:52:26;23.15;;;13.73;;
46845;SDS011;33947;46.804;134.252;2023-04-19T10:55:32;16.90;;;10.73;;
46845;SDS011;33947;46.804;134.252;2023-04-19T10:59:22;14.68;;;9.98;;
46845;SDS011;33947;46.804;134.252;2023-04-19T11:02:25;17.13;;;11.10;;
46845;SDS011;33947;46.804;134.252;2023-04-19T11:05:52;15.25;;;12.55;;
46845;SDS011;33947;46.804;134.252;2023-04-19T11:12:41;14.75;;;11.77;;
46845;SDS011;33947;46.804;134.252;2023-04-19T11:15:47;18.25;;;11.13;;
46845;SDS011;33947;46.804;134.252;2023-04-19T11:18:51;13.63;;;9.48;;
46845;SDS011;33947;46.804;134.252;2023-04-19T11:21:57;16.67;;;10.00;;
46845;SDS011;33947;46.804;134.252;2023-04-19T11:25:21;16.05;;;10.60;;
46845;SDS011;33947;46.804;134.252;2023-04-19T11:28:26;19.95;;;10.10;;
46845;SDS011;33947;46.804;134.252;2023-04-19T11:31:31;16.02;;;10.25;;
46845;SDS011;33947;46.804;134.252;2023-04-19T11:34:36;17.33;;;9.68;;
46845;SDS011;33947;46.804;134.252;2023-04-19T11:37:41;26.15;;;11.35;;
46845;SDS011;33947;46.804;134.252;2023-04-19T11:40:46;26.77;;;11.82;;
46845;SDS011;33947;46.804;134.252;2023-04-19T11:44:01;17.23;;;10.60;;
46845;SDS011;33947;46.804;134.252;2023-04-19T11:47:05;17.98;;;11.55;;
46845;SDS011;33947;46.804;134.252;2023-04-19T11:50:29;17.75;;;11.20;;
46845;SDS011;33947;46.804;134.252;2023-04-19T11:53:38;16.17;;;11.15;;
46845;SDS011;33947;46.804;134.252;2023-04-19T12:00:11;24.25;;;16.80;;
46845;SDS011;33947;46.804;134.252;2023-04-19T12:03:19;26.88;;;13.07;;
46845;SDS011;33947;46.804;134.252;2023-04-19T12:06:29;25.95;;;13.55;;
46845;SDS011;33947;46.804;134.252;2023-04-19T12:09:36;15.27;;;10.05;;
46845;SDS011;33947;46.804;134.252;2023-04-19T12:12:41;18.70;;;11.15;;
46845;SDS011;33947;46.804;134.252;2023-04-19T12:15:45;16.05;;;9.02;;
46845;SDS011;33947;46.804;134.252;2023-04-19T12:18:51;15.55;;;10.38;;
46845;SDS011;33947;46.804;134.252;2023-04-19T12:22:03;16.95;;;10.25;;
46845;SDS011;33947;46.804;134.252;2023-04-19T12:25:14;15.88;;;9.95;;
46845;SDS011;33947;46.804;134.252;2023-04-19T12:28:18;23.38;;;10.20;;
46845;SDS011;33947;46.804;134.252;2023-04-19T12:31:22;16.70;;;10.13;;
46845;SDS011;33947;46.804;134.252;2023-04-19T12:34:27;15.63;;;9.65;;
46845;SDS011;33947;46.804;134.252;2023-04-19T12:37:32;13.70;;;10.48;;
46845;SDS011;33947;46.804;134.252;2023-04-19T12:40:36;14.93;;;11.25;;
46845;SDS011;33947;46.804;134.252;2023-04-19T12:43:41;22.70;;;10.70;;
46845;SDS011;33947;46.804;134.252;2023-04-19T12:46:46;14.73;;;9.45;;
46845;SDS011;33947;46.804;134.252;2023-04-19T12:49:51;12.93;;;9.60;;
46845;SDS011;33947;46.804;134.252;2023-04-19T12:52:57;23.45;;;14.63;;
46845;SDS011;33947;46.804;134.252;2023-04-19T12:56:02;16.92;;;10.88;;
46845;SDS011;33947;46.804;134.252;2023-04-19T12:59:06;21.77;;;11.70;;
46845;SDS011;33947;46.804;134.252;2023-04-19T13:02:10;14.82;;;10.27;;
46845;SDS011;33947;46.804;134.252;2023-04-19T13:05:15;17.52;;;10.13;;
46845;SDS011;33947;46.804;134.252;2023-04-19T13:08:20;13.88;;;9.73;;
46845;SDS011;33947;46.804;134.252;2023-04-19T13:11:45;13.40;;;9.53;;
46845;SDS011;33947;46.804;134.252;2023-04-19T13:14:51;14.73;;;9.45;;
46845;SDS011;33947;46.804;134.252;2023-04-19T13:17:57;12.97;;;9.47;;
46845;SDS011;33947;46.804;134.252;2023-04-19T13:21:03;13.45;;;9.15;;
46845;SDS011;33947;46.804;134.252;2023-04-19T13:24:10;12.35;;;9.40;;
46845;SDS011;33947;46.804;134.252;2023-04-19T13:27:15;12.35;;;8.70;;
46845;SDS011;33947;46.804;134.252;2023-04-19T13:30:19;15.02;;;9.18;;
46845;SDS011;33947;46.804;134.252;2023-04-19T13:33:23;11.88;;;8.75;;
46845;SDS011;33947;46.804;134.252;2023-04-19T13:39:33;12.45;;;9.10;;
46845;SDS011;33947;46.804;134.252;2023-04-19T13:42:38;13.20;;;9.45;;
46845;SDS011;33947;46.804;134.252;2023-04-19T13:45:44;12.65;;;8.98;;
46845;SDS011;33947;46.804;134.252;2023-04-19T13:48:51;15.10;;;9.77;;
46845;SDS011;33947;46.804;134.252;2023-04-19T13:51:56;16.75;;;9.98;;
46845;SDS011;33947;46.804;134.252;2023-04-19T13:55:01;11.97;;;9.23;;
46845;SDS011;33947;46.804;134.252;2023-04-19T13:58:05;13.32;;;9.50;;
46845;SDS011;33947;46.804;134.252;2023-04-19T14:01:09;13.05;;;9.40;;
46845;SDS011;33947;46.804;134.252;2023-04-19T14:04:13;11.32;;;9.43;;
46845;SDS011;33947;46.804;134.252;2023-04-19T14:07:19;14.85;;;9.32;;
46845;SDS011;33947;46.804;134.252;2023-04-19T14:10:23;12.35;;;9.15;;
46845;SDS011;33947;46.804;134.252;2023-04-19T14:13:28;12.20;;;8.63;;
46845;SDS011;33947;46.804;134.252;2023-04-19T14:16:32;11.07;;;9.02;;
46845;SDS011;33947;46.804;134.252;2023-04-19T14:19:37;11.55;;;8.68;;
46845;SDS011;33947;46.804;134.252;2023-04-19T14:22:42;12.98;;;8.80;;
46845;SDS011;33947;46.804;134.252;2023-04-19T14:25:46;11.63;;;8.40;;
46845;SDS011;33947;46.804;134.252;2023-04-19T14:28:51;12.95;;;8.68;;
46845;SDS011;33947;46.804;134.252;2023-04-19T14:31:55;11.80;;;9.05;;
46845;SDS011;33947;46.804;134.252;2023-04-19T14:35:12;11.63;;;8.27;;
46845;SDS011;33947;46.804;134.252;2023-04-19T14:38:16;13.27;;;8.80;;
46845;SDS011;33947;46.804;134.252;2023-04-19T14:41:20;12.27;;;8.80;;
46845;SDS011;33947;46.804;134.252;2023-04-19T14:44:25;12.15;;;9.05;;
46845;SDS011;33947;46.804;134.252;2023-04-19T14:47:30;14.73;;;9.15;;
46845;SDS011;33947;46.804;134.252;2023-04-19T14:50:34;13.65;;;8.48;;
46845;SDS011;33947;46.804;134.252;2023-04-19T14:53:39;14.43;;;8.27;;
46845;SDS011;33947;46.804;134.252;2023-04-19T14:56:43;13.65;;;8.57;;
46845;SDS011;33947;46.804;134.252;2023-04-19T14:59:47;10.73;;;8.25;;
46845;SDS011;33947;46.804;134.252;2023-04-19T15:02:51;15.88;;;9.18;;
46845;SDS011;33947;46.804;134.252;2023-04-19T15:05:56;19.77;;;9.48;;
46845;SDS011;33947;46.804;134.252;2023-04-19T15:09:00;11.93;;;9.35;;
46845;SDS011;33947;46.804;134.252;2023-04-19T15:12:05;15.57;;;9.32;;
46845;SDS011;33947;46.804;134.252;2023-04-19T15:15:10;12.07;;;8.43;;
46845;SDS011;33947;46.804;134.252;2023-04-19T15:18:14;11.60;;;7.43;;
46845;SDS011;33947;46.804;134.252;2023-04-19T15:21:19;10.05;;;7.82;;
46845;SDS011;33947;46.804;134.252;2023-04-19T15:24:26;12.88;;;8.52;;
46845;SDS011;33947;46.804;134.252;2023-04-19T15:27:30;10.68;;;7.85;;
46845;SDS011;33947;46.804;134.252;2023-04-19T15:30:35;11.73;;;8.40;;
46845;SDS011;33947;46.804;134.252;2023-04-19T15:33:39;13.95;;;7.65;;
46845;SDS011;33947;46.804;134.252;2023-04-19T15:36:43;12.55;;;8.73;;
46845;SDS011;33947;46.804;134.252;2023-04-19T15:39:47;22.80;;;15.38;;
46845;SDS011;33947;46.804;134.252;2023-04-19T15:42:52;22.30;;;12.43;;
46845;SDS011;33947;46.804;134.252;2023-04-19T15:45:57;16.15;;;8.43;;
46845;SDS011;33947;46.804;134.252;2023-04-19T15:49:01;9.60;;;7.47;;
46845;SDS011;33947;46.804;134.252;2023-04-19T15:52:07;12.00;;;7.13;;
46845;SDS011;33947;46.804;134.252;2023-04-19T15:55:11;9.23;;;7.25;;
46845;SDS011;33947;46.804;134.252;2023-04-19T15:58:15;9.55;;;7.32;;
46845;SDS011;33947;46.804;134.252;2023-04-19T16:01:19;8.32;;;6.75;;
46845;SDS011;33947;46.804;134.252;2023-04-19T16:04:25;13.15;;;6.93;;
46845;SDS011;33947;46.804;134.252;2023-04-19T16:07:30;9.60;;;5.82;;
46845;SDS011;33947;46.804;134.252;2023-04-19T16:10:35;8.45;;;5.90;;
46845;SDS011;33947;46.804;134.252;2023-04-19T16:13:41;9.10;;;5.90;;
46845;SDS011;33947;46.804;134.252;2023-04-19T16:16:44;8.95;;;6.10;;
46845;SDS011;33947;46.804;134.252;2023-04-19T16:19:48;7.78;;;5.20;;
46845;SDS011;33947;46.804;134.252;2023-04-19T16:22:53;9.45;;;5.55;;
46845;SDS011;33947;46.804;134.252;2023-04-19T16:25:58;7.68;;;5.65;;
46845;SDS011;33947;46.804;134.252;2023-04-19T16:29:02;7.82;;;5.47;;
46845;SDS011;33947;46.804;134.252;2023-04-19T16:32:07;7.03;;;5.65;;
46845;SDS011;33947;46.804;134.252;2023-04-19T16:35:13;8.10;;;5.60;;
46845;SDS011;33947;46.804;134.252;2023-04-19T16:38:17;7.00;;;5.15;;
46845;SDS011;33947;46.804;134.252;2023-04-19T16:41:22;8.68;;;5.28;;
46845;SDS011;33947;46.804;134.252;2023-04-19T16:44:26;6.55;;;4.70;;
46845;SDS011;33947;46.804;134.252;2023-04-19T16:47:31;6.43;;;5.40;;
46845;SDS011;33947;46.804;134.252;2023-04-19T16:50:36;7.07;;;5.53;;
46845;SDS011;33947;46.804;134.252;2023-04-19T16:53:40;6.65;;;5.15;;
46845;SDS011;33947;46.804;134.252;2023-04-19T16:56:47;8.07;;;5.50;;
46845;SDS011;33947;46.804;134.252;2023-04-19T16:59:51;8.80;;;5.80;;
46845;SDS011;33947;46.804;134.252;2023-04-19T17:02:55;9.18;;;5.63;;
46845;SDS011;33947;46.804;134.252;2023-04-19T17:06:00;7.05;;;5.32;;
46845;SDS011;33947;46.804;134.252;2023-04-19T17:09:04;7.93;;;5.47;;
46845;SDS011;33947;46.804;134.252;2023-04-19T17:12:10;6.75;;;5.10;;
46845;SDS011;33947;46.804;134.252;2023-04-19T17:15:14;9.82;;;5.03;;
46845;SDS011;33947;46.804;134.252;2023-04-19T17:18:19;9.90;;;5.28;;
46845;SDS011;33947;46.804;134.252;2023-04-19T17:21:23;9.13;;;5.05;;
46845;SDS011;33947;46.804;134.252;2023-04-19T17:24:28;9.55;;;5.45;;
46845;SDS011;33947;46.804;134.252;2023-04-19T17:27:32;8.48;;;5.60;;
46845;SDS011;33947;46.804;134.252;2023-04-19T17:30:37;8.40;;;5.18;;
46845;SDS011;33947;46.804;134.252;2023-04-19T17:33:41;12.50;;;5.82;;
46845;SDS011;33947;46.804;134.252;2023-04-19T17:36:45;14.55;;;5.40;;
46845;SDS011;33947;46.804;134.252;2023-04-19T17:39:49;15.48;;;6.05;;
46845;SDS011;33947;46.804;134.252;2023-04-19T17:42:54;8.40;;;5.45;;
46845;SDS011;33947;46.804;134.252;2023-04-19T17:45:58;11.32;;;6.50;;
46845;SDS011;33947;46.804;134.252;2023-04-19T17:49:03;16.15;;;6.03;;
46845;SDS011;33947;46.804;134.252;2023-04-19T17:55:39;12.07;;;5.68;;
46845;SDS011;33947;46.804;134.252;2023-04-19T17:58:45;12.23;;;6.15;;
46845;SDS011;33947;46.804;134.252;2023-04-19T18:01:49;9.48;;;6.18;;
46845;SDS011;33947;46.804;134.252;2023-04-19T18:04:54;15.27;;;6.68;;
46845;SDS011;33947;46.804;134.252;2023-04-19T18:07:58;8.00;;;6.03;;
46845;SDS011;33947;46.804;134.252;2023-04-19T18:11:03;12.65;;;6.53;;
46845;SDS011;33947;46.804;134.252;2023-04-19T18:17:13;11.82;;;6.05;;
46845;SDS011;33947;46.804;134.252;2023-04-19T18:20:18;11.13;;;5.93;;
46845;SDS011;33947;46.804;134.252;2023-04-19T18:23:22;10.43;;;5.30;;
46845;SDS011;33947;46.804;134.252;2023-04-19T18:26:36;9.95;;;5.50;;